Time;durP1;ratioP1;P1;durP2;ratioP2;P2;SDS_P1;SDS_P2;PMS_P1;PMS_P2;Temp;Humidity;BMP_temperature;BMP_pressure;BME280_temperature;BME280_humidity;BME280_pressure;Samples;Min_cycle;Max_cycle;Signal;HPM_P1;HPM_P2
2022/02/14 00:01:56;;;;;;;7.77;6.63;;;5.40;76.00;;;;;;5035192;28;20216;-91
2022/02/14 00:04:22;;;;;;;7.77;6.83;;;5.50;75.60;;;;;;5032115;28;20561;-91
2022/02/14 00:06:48;;;;;;;8.77;6.90;;;5.50;75.30;;;;;;5035908;28;20224;-90
2022/02/14 00:09:14;;;;;;;10.07;6.93;;;5.50;75.30;;;;;;5036417;28;20196;-92
2022/02/14 00:11:40;;;;;;;10.57;7.50;;;5.50;75.10;;;;;;5028879;28;20810;-91
2022/02/14 00:14:06;;;;;;;8.60;6.93;;;5.40;74.40;;;;;;5024861;28;20203;-90
2022/02/14 00:16:32;;;;;;;8.50;6.80;;;5.30;76.40;;;;;;5028857;28;20181;-91
2022/02/14 00:18:58;;;;;;;8.23;7.43;;;5.20;75.50;;;;;;5030619;28;20562;-92
2022/02/14 00:21:24;;;;;;;8.77;6.50;;;5.30;76.30;;;;;;5023992;28;20213;-91
2022/02/14 00:23:50;;;;;;;8.80;7.63;;;5.40;75.70;;;;;;5034478;28;20194;-90
2022/02/14 00:26:16;;;;;;;9.97;8.60;;;5.30;75.60;;;;;;5031104;28;20193;-91
2022/02/14 00:28:41;;;;;;;9.07;7.73;;;5.30;75.30;;;;;;5027525;28;20212;-90
2022/02/14 00:31:07;;;;;;;9.27;8.30;;;5.30;75.80;;;;;;5029348;28;20200;-91
2022/02/14 00:33:34;;;;;;;11.93;7.80;;;5.20;75.70;;;;;;5044055;28;20212;-90
2022/02/14 00:36:00;;;;;;;9.67;7.87;;;5.00;76.10;;;;;;5027464;28;20177;-91
2022/02/14 00:38:26;;;;;;;10.47;8.53;;;4.90;77.30;;;;;;5026764;28;20188;-90
2022/02/14 00:40:52;;;;;;;10.53;8.13;;;4.80;77.00;;;;;;5032981;28;20197;-90
2022/02/14 00:43:19;;;;;;;8.53;6.90;;;4.70;77.30;;;;;;5029020;28;20676;-92
2022/02/14 00:45:45;;;;;;;9.73;6.90;;;4.70;77.80;;;;;;5033455;28;20196;-91
2022/02/14 00:48:11;;;;;;;6.70;6.03;;;4.80;78.70;;;;;;5026036;28;20205;-91
2022/02/14 00:50:38;;;;;;;7.63;6.43;;;4.80;77.70;;;;;;5022686;28;20194;-90
2022/02/14 00:53:04;;;;;;;8.03;6.13;;;4.80;77.50;;;;;;5058359;28;20259;-90
2022/02/14 00:55:30;;;;;;;8.13;7.07;;;4.80;76.70;;;;;;5028881;28;20186;-91
2022/02/14 00:57:56;;;;;;;9.37;7.57;;;4.90;77.60;;;;;;5032988;28;20227;-91
2022/02/14 01:00:22;;;;;;;9.03;6.73;;;4.90;78.30;;;;;;5033384;28;20575;-90
2022/02/14 01:02:48;;;;;;;8.43;7.33;;;5.10;77.90;;;;;;5030445;28;20204;-90
2022/02/14 01:05:15;;;;;;;6.90;6.20;;;5.10;77.50;;;;;;5021345;28;20271;-90
2022/02/14 01:07:41;;;;;;;7.20;6.50;;;5.20;76.90;;;;;;5026857;28;20260;-91
2022/02/14 01:10:09;;;;;;;7.43;5.40;;;5.20;77.10;;;;;;5028413;28;20235;-90
2022/02/14 01:12:35;;;;;;;7.30;5.90;;;5.20;77.00;;;;;;5026024;28;20213;-90
2022/02/14 01:15:05;;;;;;;5.57;4.93;;;5.30;76.20;;;;;;5045068;28;20208;-91
2022/02/14 01:17:33;;;;;;;6.10;4.57;;;5.20;73.30;;;;;;5034150;28;20609;-90
2022/02/14 01:20:00;;;;;;;5.67;4.97;;;5.00;74.70;;;;;;5036894;28;20258;-90
2022/02/14 01:22:26;;;;;;;8.43;5.13;;;4.90;75.00;;;;;;5022721;28;20296;-89
2022/02/14 01:24:51;;;;;;;6.27;5.03;;;5.00;75.50;;;;;;5029215;28;20244;-90
2022/02/14 01:27:17;;;;;;;5.47;4.63;;;5.00;75.00;;;;;;5011293;28;20199;-90
2022/02/14 01:29:43;;;;;;;8.93;6.33;;;5.00;76.10;;;;;;5039267;28;20704;-91
2022/02/14 01:32:09;;;;;;;6.13;5.50;;;5.10;76.40;;;;;;5028985;28;20221;-91
2022/02/14 01:34:35;;;;;;;5.90;4.60;;;5.20;76.90;;;;;;5036138;28;20260;-91
2022/02/14 01:37:01;;;;;;;5.20;4.70;;;5.10;76.70;;;;;;5032096;28;20189;-90
2022/02/14 01:39:28;;;;;;;7.40;5.33;;;5.10;76.40;;;;;;5027092;28;20278;-90
2022/02/14 01:41:58;;;;;;;6.13;5.40;;;5.20;76.00;;;;;;5061329;28;20208;-90
2022/02/14 01:44:37;;;;;;;6.03;4.60;;;5.20;76.20;;;;;;5032444;28;20213;-91
2022/02/14 01:47:05;;;;;;;7.43;5.27;;;5.20;75.70;;;;;;5041622;28;20188;-90
2022/02/14 01:49:31;;;;;;;4.90;4.40;;;5.20;75.60;;;;;;5035712;28;20193;-90
2022/02/14 01:51:57;;;;;;;5.77;5.17;;;5.30;75.90;;;;;;5035871;28;20331;-91
2022/02/14 01:54:23;;;;;;;6.03;5.23;;;5.30;75.60;;;;;;5034929;28;20192;-91
2022/02/14 01:56:49;;;;;;;5.93;5.33;;;5.40;75.90;;;;;;5036944;28;20185;-90
2022/02/14 01:59:15;;;;;;;6.27;5.23;;;5.30;76.00;;;;;;5041187;28;20197;-92
2022/02/14 02:01:41;;;;;;;5.57;4.43;;;5.50;76.10;;;;;;5039504;28;20213;-92
2022/02/14 02:04:06;;;;;;;5.70;5.17;;;5.30;74.30;;;;;;5028003;28;20253;-90
2022/02/14 02:06:33;;;;;;;5.00;4.50;;;5.20;74.40;;;;;;5050394;28;20206;-91
2022/02/14 02:09:01;;;;;;;5.67;4.60;;;5.00;74.80;;;;;;5029121;28;20189;-91
2022/02/14 02:14:12;;;;;;;4.97;4.47;;;4.80;76.90;;;;;;5035052;28;20281;-90
2022/02/14 02:16:37;;;;;;;9.70;5.13;;;4.80;77.20;;;;;;5064167;28;20603;-90
2022/02/14 02:19:03;;;;;;;5.07;4.67;;;4.80;77.10;;;;;;5032145;28;20220;-91
2022/02/14 02:21:29;;;;;;;5.03;4.53;;;4.90;77.00;;;;;;5036691;28;20219;-91
2022/02/14 02:23:57;;;;;;;5.43;4.30;;;5.00;76.80;;;;;;5036811;28;20205;-90
2022/02/14 02:26:31;;;;;;;5.33;4.23;;;4.90;77.00;;;;;;5031638;28;20194;-90
2022/02/14 02:28:57;;;;;;;4.97;4.47;;;4.90;77.20;;;;;;5040060;28;20236;-90
2022/02/14 02:31:23;;;;;;;6.23;4.07;;;4.90;77.10;;;;;;5035287;28;20219;-90
2022/02/14 02:33:49;;;;;;;5.03;3.90;;;4.90;77.10;;;;;;5038898;28;20276;-90
2022/02/14 02:36:15;;;;;;;6.47;4.70;;;4.80;77.40;;;;;;5042220;28;20197;-90
2022/02/14 02:38:40;;;;;;;5.27;4.63;;;4.90;77.30;;;;;;5022403;28;20197;-91
2022/02/14 02:41:07;;;;;;;5.97;4.90;;;5.00;76.50;;;;;;5036159;28;20239;-90
2022/02/14 02:43:32;;;;;;;5.70;5.10;;;4.90;77.00;;;;;;5038663;28;20201;-91
2022/02/14 02:45:59;;;;;;;6.80;5.37;;;5.00;77.40;;;;;;5042147;28;20731;-90
2022/02/14 02:48:25;;;;;;;5.63;4.80;;;4.90;77.50;;;;;;5039931;28;20200;-91
2022/02/14 02:51:05;;;;;;;5.37;4.53;;;4.90;77.70;;;;;;5041131;28;20726;-91
2022/02/14 02:53:32;;;;;;;5.27;4.77;;;4.90;77.30;;;;;;5040697;28;20205;-90
2022/02/14 02:55:58;;;;;;;6.53;5.10;;;4.90;77.70;;;;;;5021669;28;20189;-90
2022/02/14 02:58:25;;;;;;;6.03;5.17;;;4.90;77.90;;;;;;5033379;28;20244;-90
2022/02/14 03:00:51;;;;;;;6.23;4.97;;;4.90;77.10;;;;;;5041671;28;20197;-90
2022/02/14 03:03:17;;;;;;;8.50;6.17;;;4.80;76.20;;;;;;5030846;28;20182;-91
2022/02/14 03:05:42;;;;;;;8.17;5.40;;;4.80;77.10;;;;;;5037225;28;20220;-91
2022/02/14 03:08:08;;;;;;;6.17;5.10;;;4.70;75.90;;;;;;5038157;28;20201;-90
2022/02/14 03:10:34;;;;;;;7.70;5.40;;;4.60;76.30;;;;;;5027708;28;20194;-90
2022/02/14 03:13:00;;;;;;;8.07;6.03;;;4.50;78.10;;;;;;5030127;28;20301;-90
2022/02/14 03:15:26;;;;;;;7.10;5.60;;;4.40;77.80;;;;;;5046199;28;20339;-90
2022/02/14 03:17:52;;;;;;;7.07;5.00;;;4.50;78.60;;;;;;5035722;28;20264;-90
2022/02/14 03:20:18;;;;;;;5.83;5.23;;;4.50;78.90;;;;;;5032368;28;20201;-90
2022/02/14 03:22:44;;;;;;;8.07;5.10;;;4.60;79.50;;;;;;5035471;28;20217;-91
2022/02/14 03:25:13;;;;;;;6.00;5.40;;;4.50;79.30;;;;;;5058903;28;20280;-91
2022/02/14 03:27:39;;;;;;;6.03;5.20;;;4.50;79.10;;;;;;5033445;28;20182;-91
2022/02/14 03:30:06;;;;;;;5.70;5.10;;;4.50;79.50;;;;;;5064942;28;20209;-90
2022/02/14 03:32:32;;;;;;;6.90;5.67;;;4.50;80.40;;;;;;5065189;28;20224;-89
2022/02/14 03:34:58;;;;;;;8.03;5.90;;;4.60;78.50;;;;;;5033298;28;20193;-90
2022/02/14 03:37:24;;;;;;;8.00;6.67;;;4.50;76.10;;;;;;5038076;28;20208;-91
2022/02/14 03:39:49;;;;;;;8.40;6.37;;;4.50;75.80;;;;;;5030084;28;20224;-90
2022/02/14 03:42:15;;;;;;;8.63;6.23;;;4.50;76.80;;;;;;5033708;28;20727;-90
2022/02/14 03:44:41;;;;;;;8.70;5.63;;;4.40;77.50;;;;;;5038574;28;20286;-91
2022/02/14 03:47:10;;;;;;;6.27;5.63;;;4.30;77.20;;;;;;5036502;28;20204;-89
2022/02/14 03:49:36;;;;;;;10.03;6.00;;;4.20;77.80;;;;;;5034234;28;20197;-90
2022/02/14 03:52:02;;;;;;;9.73;6.30;;;4.20;78.80;;;;;;5035680;28;20225;-90
2022/02/14 03:54:28;;;;;;;5.97;5.37;;;4.10;78.10;;;;;;5037930;28;20197;-89
2022/02/14 03:56:54;;;;;;;6.53;5.87;;;4.10;78.20;;;;;;5022216;28;20189;-90
2022/02/14 03:59:20;;;;;;;7.00;6.27;;;4.10;78.50;;;;;;5023885;28;20197;-90
2022/02/14 04:01:46;;;;;;;8.20;6.00;;;4.20;78.00;;;;;;5028524;28;20277;-91
2022/02/14 04:04:12;;;;;;;6.87;5.70;;;4.20;77.80;;;;;;5031164;28;20193;-90
2022/02/14 04:06:38;;;;;;;10.67;7.37;;;4.20;77.50;;;;;;5028411;28;20190;-90
2022/02/14 04:09:04;;;;;;;9.57;6.90;;;4.30;77.30;;;;;;5016601;28;20208;-90
2022/02/14 04:11:30;;;;;;;11.77;7.60;;;4.30;77.00;;;;;;5033896;28;20217;-91
2022/02/14 04:13:56;;;;;;;8.27;6.80;;;4.30;77.00;;;;;;5025539;28;20756;-89
2022/02/14 04:16:21;;;;;;;7.17;5.70;;;4.40;76.20;;;;;;5001492;28;20572;-89
2022/02/14 04:18:47;;;;;;;10.50;6.00;;;4.40;75.70;;;;;;5032493;28;20581;-90
2022/02/14 04:21:13;;;;;;;6.70;5.53;;;4.30;76.40;;;;;;5026976;28;20267;-91
2022/02/14 04:23:39;;;;;;;8.47;5.57;;;4.20;76.90;;;;;;5024189;28;20248;-90
2022/02/14 04:26:05;;;;;;;7.93;5.40;;;4.10;77.30;;;;;;5047697;28;20228;-90
2022/02/14 04:28:31;;;;;;;6.80;5.37;;;4.10;78.20;;;;;;5053872;28;20679;-90
2022/02/14 04:30:57;;;;;;;6.73;5.73;;;4.10;79.10;;;;;;5046529;28;20224;-91
2022/02/14 04:33:23;;;;;;;10.47;6.10;;;4.10;80.00;;;;;;5031036;28;20220;-90
2022/02/14 04:35:49;;;;;;;10.00;6.90;;;4.10;79.70;;;;;;5060188;28;20204;-90
2022/02/14 04:38:14;;;;;;;8.93;6.37;;;4.20;80.00;;;;;;5032784;28;20201;-90
2022/02/14 04:40:40;;;;;;;8.87;6.50;;;4.20;77.60;;;;;;5010343;28;20204;-91
2022/02/14 04:43:06;;;;;;;9.27;6.27;;;4.30;77.00;;;;;;5020029;28;20197;-91
2022/02/14 04:45:33;;;;;;;6.40;5.73;;;4.30;75.90;;;;;;5031874;28;20572;-91
2022/02/14 04:47:59;;;;;;;8.07;5.67;;;4.30;76.60;;;;;;5030742;28;20197;-92
2022/02/14 04:50:25;;;;;;;8.93;6.20;;;4.20;77.10;;;;;;5027355;28;20287;-91
2022/02/14 04:52:52;;;;;;;8.90;6.37;;;4.10;77.50;;;;;;5026809;28;20323;-90
2022/02/14 04:55:18;;;;;;;8.57;6.40;;;4.00;78.20;;;;;;5025029;28;21096;-90
2022/02/14 04:57:44;;;;;;;8.50;6.83;;;4.00;78.60;;;;;;5027329;28;20322;-89
2022/02/14 05:00:12;;;;;;;9.87;6.27;;;3.90;78.20;;;;;;5023435;28;20193;-90
2022/02/14 05:02:38;;;;;;;7.37;6.00;;;4.00;79.80;;;;;;5016949;28;20222;-88
2022/02/14 05:05:04;;;;;;;8.10;6.13;;;4.00;79.90;;;;;;5024173;28;20774;-87
2022/02/14 05:07:30;;;;;;;7.57;5.80;;;4.20;80.00;;;;;;5025093;28;20196;-89
2022/02/14 05:09:56;;;;;;;7.60;5.87;;;4.20;79.60;;;;;;5015647;28;20208;-88
2022/02/14 05:12:21;;;;;;;7.40;5.40;;;4.30;78.80;;;;;;5036504;28;20249;-87
2022/02/14 05:14:47;;;;;;;7.90;6.80;;;4.30;79.40;;;;;;5019005;28;20206;-90
2022/02/14 05:17:15;;;;;;;10.43;7.00;;;4.30;78.20;;;;;;5020824;28;20197;-88
2022/02/14 05:19:41;;;;;;;7.80;6.87;;;4.30;77.80;;;;;;5026901;28;20197;-88
2022/02/14 05:22:07;;;;;;;8.97;7.07;;;4.20;78.90;;;;;;5037242;28;20225;-88
2022/02/14 05:24:32;;;;;;;7.13;5.83;;;4.20;78.40;;;;;;5020501;28;20274;-88
2022/02/14 05:26:58;;;;;;;7.63;6.83;;;4.10;79.90;;;;;;5027999;28;20670;-88
2022/02/14 05:29:24;;;;;;;7.27;6.50;;;4.20;79.90;;;;;;5021231;28;20231;-89
2022/02/14 05:31:50;;;;;;;8.87;7.10;;;4.20;80.20;;;;;;5022225;28;20616;-89
2022/02/14 05:34:15;;;;;;;7.33;6.33;;;4.20;79.80;;;;;;5022773;28;20196;-89
2022/02/14 05:36:41;;;;;;;11.70;6.87;;;4.10;79.50;;;;;;5025148;28;20296;-89
2022/02/14 05:39:08;;;;;;;8.73;6.93;;;4.00;80.60;;;;;;5027338;28;20208;-89
2022/02/14 05:41:34;;;;;;;9.97;7.90;;;4.00;79.80;;;;;;5012111;28;20954;-89
2022/02/14 05:44:01;;;;;;;9.90;7.57;;;4.00;79.90;;;;;;5022835;28;20216;-89
2022/02/14 05:46:28;;;;;;;9.67;7.70;;;3.90;80.00;;;;;;5033329;28;20293;-90
2022/02/14 05:48:54;;;;;;;10.10;7.93;;;4.00;79.70;;;;;;5031797;28;20193;-89
2022/02/14 05:51:20;;;;;;;18.67;9.23;;;3.90;80.30;;;;;;5032891;28;20763;-89
2022/02/14 05:53:46;;;;;;;10.97;8.00;;;3.90;80.70;;;;;;5024055;28;20218;-89
2022/02/14 05:56:13;;;;;;;17.90;11.70;;;4.00;80.90;;;;;;5024222;28;20221;-89
2022/02/14 05:58:39;;;;;;;19.37;12.70;;;4.00;81.00;;;;;;5037059;28;20185;-89
2022/02/14 06:01:05;;;;;;;15.40;10.33;;;4.00;81.20;;;;;;5017160;28;20210;-88
2022/02/14 06:03:31;;;;;;;10.00;7.73;;;4.10;80.50;;;;;;5019557;28;20229;-88
2022/02/14 06:05:56;;;;;;;9.87;7.17;;;4.10;79.70;;;;;;5017769;28;20192;-88
2022/02/14 06:08:22;;;;;;;7.57;6.67;;;4.20;79.00;;;;;;5017328;28;20202;-89
2022/02/14 06:10:49;;;;;;;7.97;6.13;;;4.10;78.20;;;;;;5028940;28;20640;-89
2022/02/14 06:13:15;;;;;;;9.07;6.33;;;4.20;78.70;;;;;;5026260;28;20220;-89
2022/02/14 06:15:40;;;;;;;8.10;6.07;;;4.20;78.10;;;;;;5023160;28;20737;-88
2022/02/14 06:18:06;;;;;;;8.60;7.03;;;4.10;78.30;;;;;;5028600;28;20223;-89
2022/02/14 06:20:32;;;;;;;9.53;6.53;;;4.00;79.00;;;;;;5025554;28;20193;-88
2022/02/14 06:22:58;;;;;;;6.13;5.53;;;4.00;79.50;;;;;;5019401;28;20209;-88
2022/02/14 06:25:23;;;;;;;9.93;5.43;;;4.10;78.90;;;;;;5033571;28;20252;-89
2022/02/14 06:27:49;;;;;;;7.93;5.97;;;4.00;80.60;;;;;;5030110;28;20263;-89
2022/02/14 06:30:15;;;;;;;7.83;5.80;;;4.00;79.00;;;;;;5026498;28;20238;-89
2022/02/14 06:32:40;;;;;;;8.00;5.67;;;4.00;78.80;;;;;;5031179;28;20217;-89
2022/02/14 06:35:06;;;;;;;7.27;5.17;;;4.10;77.70;;;;;;5025222;28;20787;-88
2022/02/14 06:37:32;;;;;;;9.90;6.57;;;4.10;77.80;;;;;;5024329;28;20197;-88
2022/02/14 06:39:58;;;;;;;8.67;5.30;;;4.00;77.90;;;;;;5029638;28;20277;-88
2022/02/14 06:42:23;;;;;;;8.30;5.47;;;4.10;77.50;;;;;;5024554;28;20220;-88
2022/02/14 06:44:49;;;;;;;6.33;5.40;;;4.10;77.30;;;;;;5029589;28;20197;-89
2022/02/14 06:47:15;;;;;;;6.17;5.50;;;4.10;77.20;;;;;;5031714;28;20682;-88
2022/02/14 06:49:40;;;;;;;8.10;6.10;;;4.20;77.40;;;;;;5022681;28;20225;-88
2022/02/14 06:52:06;;;;;;;6.97;6.17;;;4.10;77.30;;;;;;5022646;28;20225;-89
2022/02/14 06:54:32;;;;;;;10.47;7.37;;;4.10;77.10;;;;;;5017878;28;20251;-88
2022/02/14 06:56:58;;;;;;;11.50;7.50;;;4.10;77.60;;;;;;5031720;28;20192;-89
2022/02/14 06:59:23;;;;;;;10.53;6.97;;;4.10;78.60;;;;;;5029050;28;20197;-88
2022/02/14 07:01:49;;;;;;;7.63;6.50;;;4.20;78.30;;;;;;5019374;28;20868;-89
2022/02/14 07:04:15;;;;;;;11.40;6.47;;;4.30;79.30;;;;;;5020492;28;20548;-89
2022/02/14 07:06:40;;;;;;;8.53;6.90;;;4.50;79.80;;;;;;5028210;28;20543;-89
2022/02/14 07:09:07;;;;;;;6.63;5.93;;;4.60;79.50;;;;;;5021977;28;20273;-89
2022/02/14 07:11:33;;;;;;;8.87;7.23;;;4.60;80.30;;;;;;5016830;28;20777;-88
2022/02/14 07:13:58;;;;;;;10.00;7.00;;;4.60;79.40;;;;;;5030685;28;20209;-89
2022/02/14 07:16:24;;;;;;;11.40;7.53;;;4.50;78.60;;;;;;5027497;28;20553;-90
2022/02/14 07:18:50;;;;;;;11.43;6.63;;;4.50;79.20;;;;;;5020259;28;20654;-88
2022/02/14 07:21:17;;;;;;;9.57;7.13;;;4.70;80.10;;;;;;5028545;28;20229;-89
2022/02/14 07:23:43;;;;;;;10.13;7.33;;;4.70;80.50;;;;;;5022331;28;20220;-89
2022/02/14 07:26:08;;;;;;;10.30;7.20;;;4.70;81.50;;;;;;5024876;28;20247;-88
2022/02/14 07:28:34;;;;;;;11.60;7.63;;;4.80;80.70;;;;;;5022915;28;20820;-88
2022/02/14 07:31:00;;;;;;;10.90;7.50;;;4.80;80.00;;;;;;5026441;28;20217;-89
2022/02/14 07:33:26;;;;;;;10.60;7.93;;;4.70;82.70;;;;;;5029897;28;20215;-90
2022/02/14 07:35:52;;;;;;;13.17;8.77;;;4.70;86.40;;;;;;5033373;28;20215;-90
2022/02/14 07:38:18;;;;;;;12.73;9.10;;;4.60;86.80;;;;;;5045979;28;20197;-89
2022/02/14 07:40:44;;;;;;;10.37;9.27;;;4.60;89.30;;;;;;5029467;28;20236;-90
2022/02/14 07:43:10;;;;;;;15.70;10.40;;;4.60;87.20;;;;;;5016829;28;20213;-90
2022/02/14 07:45:35;;;;;;;12.13;9.73;;;4.60;87.80;;;;;;5021050;28;20205;-90
2022/02/14 07:48:02;;;;;;;12.57;10.33;;;4.60;87.70;;;;;;5028279;28;20741;-91
2022/02/14 07:50:28;;;;;;;13.43;9.83;;;4.50;92.20;;;;;;5031636;28;20197;-91
2022/02/14 07:52:53;;;;;;;12.57;9.33;;;4.60;94.00;;;;;;5032874;28;20288;-92
2022/02/14 07:55:19;;;;;;;13.13;8.53;;;4.70;94.90;;;;;;5019716;28;20229;-91
2022/02/14 07:57:45;;;;;;;10.00;8.27;;;4.80;94.70;;;;;;5026850;28;20197;-90
2022/02/14 08:00:12;;;;;;;11.37;7.90;;;4.80;96.00;;;;;;5023128;28;20276;-90
2022/02/14 08:02:37;;;;;;;9.40;7.60;;;4.70;96.90;;;;;;5023302;28;20324;-91
2022/02/14 08:05:04;;;;;;;8.50;7.53;;;4.70;97.50;;;;;;5026318;28;20914;-91
2022/02/14 08:07:30;;;;;;;7.23;6.53;;;4.70;98.40;;;;;;5016748;28;20212;-90
2022/02/14 08:09:55;;;;;;;9.77;6.80;;;4.60;97.80;;;;;;5027277;28;20197;-90
2022/02/14 08:12:22;;;;;;;9.40;7.10;;;4.50;99.10;;;;;;5026396;28;20227;-92
2022/02/14 08:14:48;;;;;;;7.23;6.50;;;4.60;99.90;;;;;;5026762;28;20176;-91
2022/02/14 08:17:14;;;;;;;8.60;7.20;;;4.70;99.80;;;;;;5021032;28;20677;-91
2022/02/14 08:19:40;;;;;;;10.07;7.90;;;4.70;97.90;;;;;;5022795;28;20296;-91
2022/02/14 08:22:06;;;;;;;8.20;6.57;;;4.80;98.50;;;;;;5021461;28;20213;-92
2022/02/14 08:24:32;;;;;;;10.17;7.80;;;4.80;98.30;;;;;;5017363;28;20200;-90
2022/02/14 08:26:58;;;;;;;8.70;7.57;;;4.90;99.90;;;;;;5029164;28;20207;-91
2022/02/14 08:29:24;;;;;;;9.50;8.10;;;5.00;99.10;;;;;;5023259;28;20205;-90
2022/02/14 08:31:49;;;;;;;9.27;7.77;;;5.20;98.50;;;;;;5031146;28;20213;-90
2022/02/14 08:34:15;;;;;;;11.00;7.57;;;5.30;99.90;;;;;;5021950;28;20187;-91
2022/02/14 08:36:43;;;;;;;8.20;6.97;;;5.20;99.90;;;;;;5027370;28;20185;-92
2022/02/14 08:39:09;;;;;;;7.97;6.47;;;5.10;99.90;;;;;;5033158;28;20188;-95
2022/02/14 08:41:35;;;;;;;9.90;6.50;;;5.20;99.90;;;;;;5021873;28;20697;-91
2022/02/14 08:44:01;;;;;;;8.03;7.07;;;5.10;99.90;;;;;;5022850;28;20182;-91
2022/02/14 08:46:28;;;;;;;8.87;7.57;;;5.10;99.90;;;;;;5021465;28;20193;-90
2022/02/14 08:48:54;;;;;;;8.40;7.03;;;5.20;99.90;;;;;;5029365;28;20213;-91
2022/02/14 08:51:21;;;;;;;7.83;6.70;;;5.10;99.90;;;;;;5030802;28;20244;-92
2022/02/14 08:53:49;;;;;;;8.67;6.73;;;5.20;99.70;;;;;;5027542;28;20657;-91
2022/02/14 08:56:15;;;;;;;7.83;7.03;;;5.40;99.50;;;;;;5025830;28;20193;-91
2022/02/14 08:58:41;;;;;;;8.00;7.20;;;5.40;99.90;;;;;;5029984;28;20238;-91
2022/02/14 09:01:09;;;;;;;11.03;7.20;;;5.40;99.30;;;;;;5029044;28;20266;-93
2022/02/14 09:03:35;;;;;;;9.17;6.97;;;5.50;98.30;;;;;;5020746;28;20189;-91
2022/02/14 09:06:01;;;;;;;8.73;7.40;;;5.70;98.50;;;;;;5021508;28;20193;-90
2022/02/14 09:08:28;;;;;;;9.80;6.90;;;5.70;99.20;;;;;;5028097;28;20194;-91
2022/02/14 09:10:56;;;;;;;9.87;8.00;;;5.70;97.80;;;;;;5029657;28;20199;-92
2022/02/14 09:13:22;;;;;;;9.23;7.50;;;5.70;96.50;;;;;;5017758;28;20243;-92
2022/02/14 09:15:48;;;;;;;10.83;7.53;;;5.50;96.30;;;;;;5030196;28;20389;-91
2022/02/14 09:18:15;;;;;;;13.47;8.73;;;5.50;96.30;;;;;;5037187;28;20203;-93
2022/02/14 09:20:41;;;;;;;9.00;7.77;;;5.50;99.60;;;;;;5027141;28;20649;-92
2022/02/14 09:23:07;;;;;;;13.37;9.60;;;5.60;99.60;;;;;;5034462;28;20189;-91
2022/02/14 09:25:34;;;;;;;12.53;9.97;;;5.80;99.20;;;;;;5034993;28;20201;-92
2022/02/14 09:28:01;;;;;;;13.30;10.60;;;6.00;97.00;;;;;;5026649;28;20189;-91
2022/02/14 09:30:27;;;;;;;12.13;9.60;;;6.00;96.50;;;;;;5022668;28;20758;-91
2022/02/14 09:32:53;;;;;;;12.77;10.20;;;6.10;94.70;;;;;;5026927;28;20234;-91
2022/02/14 09:35:26;;;;;;;11.50;8.37;;;6.20;92.90;;;;;;5019639;28;20181;-93
2022/02/14 09:38:03;;;;;;;12.77;8.37;;;6.20;93.60;;;;;;5016034;28;20185;-92
2022/02/14 09:40:30;;;;;;;10.63;8.67;;;6.30;93.90;;;;;;5021183;28;20188;-92
2022/02/14 09:42:58;;;;;;;11.53;8.67;;;6.50;94.00;;;;;;5025450;28;20212;-90
2022/02/14 09:45:25;;;;;;;9.63;8.17;;;6.70;93.00;;;;;;5017045;28;20251;-91
2022/02/14 09:48:03;;;;;;;12.40;10.43;;;7.00;94.40;;;;;;5019839;28;20201;-92
2022/02/14 09:50:31;;;;;;;11.73;8.67;;;7.30;94.80;;;;;;5031148;28;20677;-92
2022/02/14 09:52:57;;;;;;;9.97;8.77;;;7.40;91.70;;;;;;5030183;28;20992;-91
2022/02/14 09:55:24;;;;;;;10.07;8.47;;;7.50;92.00;;;;;;5023049;28;20185;-92
2022/02/14 09:57:52;;;;;;;11.80;8.70;;;7.50;89.80;;;;;;5025427;28;20182;-92
2022/02/14 10:00:19;;;;;;;10.10;7.87;;;7.50;91.30;;;;;;5063511;28;20181;-94
2022/02/14 10:02:45;;;;;;;9.87;7.53;;;7.60;91.20;;;;;;5045512;28;20216;-92
2022/02/14 10:05:21;;;;;;;13.20;8.37;;;7.70;90.90;;;;;;5029288;28;20217;-93
2022/02/14 10:07:52;;;;;;;9.57;8.37;;;7.80;91.20;;;;;;5056316;28;20181;-94
2022/02/14 10:10:20;;;;;;;8.97;7.60;;;7.80;91.80;;;;;;5039547;28;20209;-92
2022/02/14 10:12:48;;;;;;;8.97;7.73;;;8.00;90.30;;;;;;5040309;28;20725;-94
2022/02/14 10:15:18;;;;;;;11.03;6.93;;;8.20;91.60;;;;;;5031384;28;20616;-92
2022/02/14 10:17:49;;;;;;;8.83;6.90;;;8.50;89.90;;;;;;5028429;28;20268;-92
2022/02/14 10:20:25;;;;;;;9.07;7.03;;;8.90;87.60;;;;;;5035774;28;20198;-92
2022/02/14 10:23:04;;;;;;;9.27;6.83;;;9.30;86.40;;;;;;5018671;28;20224;-91
2022/02/14 10:25:36;;;;;;;10.17;6.63;;;9.70;84.50;;;;;;5026896;28;20197;-93
2022/02/14 10:28:32;;;;;;;12.70;6.17;;;10.20;79.30;;;;;;5029224;28;20194;-92
2022/02/14 10:31:02;;;;;;;7.03;6.33;;;10.30;82.50;;;;;;5039477;28;20566;-92
2022/02/14 10:33:54;;;;;;;8.20;6.23;;;10.40;79.90;;;;;;5023183;28;20295;-92
2022/02/14 10:36:31;;;;;;;7.93;6.27;;;10.40;82.70;;;;;;5030335;28;20202;-92
2022/02/14 10:39:11;;;;;;;9.70;6.13;;;10.90;80.90;;;;;;5029195;28;20214;-93
2022/02/14 10:41:38;;;;;;;6.13;3.53;;;11.10;81.90;;;;;;5032025;28;20317;-92
2022/02/14 10:47:13;;;;;;;3.90;2.60;;;12.40;72.00;;;;;;5035561;28;20226;-93
2022/02/14 10:49:40;;;;;;;3.80;2.50;;;12.70;72.50;;;;;;5027449;28;20280;-92
2022/02/14 10:52:11;;;;;;;4.17;2.70;;;12.80;68.80;;;;;;5042737;28;20237;-93
2022/02/14 10:54:43;;;;;;;6.93;2.47;;;12.90;70.50;;;;;;5027964;28;20181;-92
2022/02/14 10:57:28;;;;;;;7.47;2.87;;;13.20;65.80;;;;;;5008391;28;20195;-93
2022/02/14 11:00:10;;;;;;;8.13;2.60;;;13.30;67.00;;;;;;5024348;28;20203;-92
2022/02/14 11:02:38;;;;;;;6.83;2.87;;;13.50;66.70;;;;;;5021199;28;20219;-92
2022/02/14 11:05:05;;;;;;;9.73;3.17;;;13.60;68.10;;;;;;5030881;28;20267;-92
2022/02/14 11:07:31;;;;;;;4.00;2.53;;;13.70;64.10;;;;;;5024989;28;20195;-91
2022/02/14 11:10:00;;;;;;;4.50;2.40;;;14.00;65.20;;;;;;5025379;28;20225;-92
2022/02/14 11:12:35;;;;;;;6.00;2.80;;;13.90;61.30;;;;;;5023972;28;20243;-91
2022/02/14 11:15:06;;;;;;;5.07;2.60;;;13.80;63.30;;;;;;5030612;28;20533;-91
2022/02/14 11:17:34;;;;;;;4.40;2.70;;;13.80;62.30;;;;;;5022777;28;20199;-89
2022/02/14 11:20:03;;;;;;;4.60;2.80;;;13.70;62.20;;;;;;5023651;28;20224;-90
2022/02/14 11:22:32;;;;;;;4.80;2.80;;;14.00;64.20;;;;;;5027049;28;20211;-90
2022/02/14 11:25:12;;;;;;;5.30;2.30;;;14.10;61.20;;;;;;5030895;28;20711;-90
2022/02/14 11:27:52;;;;;;;3.50;2.30;;;14.20;61.60;;;;;;5028504;28;20211;-90
2022/02/14 11:30:18;;;;;;;5.17;2.50;;;14.40;61.10;;;;;;5030977;28;20203;-90
2022/02/14 11:33:06;;;;;;;3.90;2.43;;;14.60;61.50;;;;;;5033194;28;20219;-90
2022/02/14 11:35:32;;;;;;;3.40;2.33;;;14.70;60.70;;;;;;5032888;28;20208;-90
2022/02/14 11:38:00;;;;;;;4.87;2.30;;;14.40;60.50;;;;;;5030016;28;20215;-90
2022/02/14 11:40:39;;;;;;;2.20;1.97;;;14.30;59.90;;;;;;5029830;28;20279;-90
2022/02/14 11:43:20;;;;;;;5.00;2.63;;;13.80;61.90;;;;;;5028746;28;20194;-90
2022/02/14 11:46:13;;;;;;;3.33;2.07;;;13.60;62.60;;;;;;5026361;28;20203;-90
2022/02/14 11:48:39;;;;;;;4.57;2.63;;;13.70;62.10;;;;;;5022757;28;20684;-90
2022/02/14 11:51:10;;;;;;;4.23;2.13;;;13.90;63.90;;;;;;5027557;28;20219;-90
2022/02/14 11:53:41;;;;;;;4.80;2.50;;;14.30;61.70;;;;;;5022507;28;20213;-90
2022/02/14 11:56:22;;;;;;;4.70;2.73;;;14.30;61.30;;;;;;5024198;28;20203;-90
2022/02/14 11:59:16;;;;;;;5.17;2.30;;;14.60;61.10;;;;;;5027456;28;20191;-90
2022/02/14 12:01:44;;;;;;;4.90;2.90;;;14.40;61.60;;;;;;5027265;28;20723;-90
2022/02/14 12:04:38;;;;;;;3.97;2.50;;;14.20;61.50;;;;;;5023197;28;20189;-90
2022/02/14 12:07:33;;;;;;;2.80;2.13;;;13.90;62.00;;;;;;5025082;28;20256;-91
2022/02/14 12:09:58;;;;;;;4.60;2.10;;;13.60;63.40;;;;;;5030022;28;20214;-90
2022/02/14 12:12:56;;;;;;;5.37;2.43;;;13.60;63.40;;;;;;5027535;28;20212;-90
2022/02/14 12:21:11;;;;;;;4.90;2.73;;;13.50;63.20;;;;;;5026473;28;20957;-90
2022/02/14 12:23:41;;;;;;;2.93;2.40;;;13.50;65.40;;;;;;5023314;28;20277;-89
2022/02/14 12:26:08;;;;;;;4.93;2.40;;;13.20;64.40;;;;;;5055341;28;20210;-90
2022/02/14 12:28:36;;;;;;;3.33;2.57;;;13.30;65.60;;;;;;5028650;28;20198;-90
2022/02/14 12:31:03;;;;;;;3.77;2.27;;;13.10;65.70;;;;;;5028175;28;20214;-90
2022/02/14 12:33:29;;;;;;;3.47;2.23;;;13.10;65.40;;;;;;5024873;28;20309;-90
2022/02/14 12:36:07;;;;;;;3.63;2.57;;;13.30;64.70;;;;;;5024712;28;20188;-90
2022/02/14 12:38:35;;;;;;;3.30;2.33;;;13.40;65.30;;;;;;5024774;28;20208;-90
2022/02/14 12:41:11;;;;;;;5.80;2.73;;;13.50;63.70;;;;;;5023137;28;20746;-90
2022/02/14 12:43:46;;;;;;;4.00;2.43;;;13.50;63.30;;;;;;5026914;28;20199;-90
2022/02/14 12:46:16;;;;;;;2.50;2.20;;;13.40;64.00;;;;;;5029297;28;20281;-90
2022/02/14 12:48:52;;;;;;;4.77;2.70;;;13.80;62.70;;;;;;5026527;28;20226;-90
2022/02/14 12:51:25;;;;;;;5.43;2.73;;;14.50;61.20;;;;;;5046594;28;20205;-90
2022/02/14 12:53:57;;;;;;;5.07;2.40;;;14.80;60.30;;;;;;5009538;28;20258;-90
2022/02/14 12:56:25;;;;;;;4.90;2.47;;;14.00;61.30;;;;;;5024585;28;20223;-91
2022/02/14 12:59:02;;;;;;;3.03;2.60;;;14.10;62.80;;;;;;5009452;28;20199;-91
2022/02/14 13:01:33;;;;;;;4.17;2.47;;;14.50;60.90;;;;;;5024567;28;20266;-91
2022/02/14 13:04:04;;;;;;;6.57;2.57;;;15.10;58.70;;;;;;5027565;28;20181;-91
2022/02/14 13:06:56;;;;;;;3.83;2.40;;;14.70;58.40;;;;;;5024603;28;20227;-91
2022/02/14 13:09:24;;;;;;;5.07;2.20;;;13.90;61.30;;;;;;5023236;28;20237;-91